CST,Max TemperatureF,Mean TemperatureF,Min TemperatureF,Max Dew PointF,MeanDew PointF,Min DewpointF,Max Humidity, Mean Humidity, Min Humidity, Max Sea Level PressureIn, Mean Sea Level PressureIn, Min Sea Level PressureIn, Max VisibilityMiles, Mean VisibilityMiles, Min VisibilityMiles, Max Wind SpeedMPH, Mean Wind SpeedMPH, Max Gust SpeedMPH,PrecipitationIn, CloudCover, Events, WindDirDegrees
2013-2-1,21,11,1,17,3,-6,79,64,49,30.48,30.33,30.17,10,8,1,20,11,26,0.03,5,Snow,251
2013-2-2,28,23,17,22,16,7,92,77,61,30.19,30.10,30.03,10,6,1,16,8,21,0.03,8,Snow,252
2013-2-3,29,23,17,20,16,12,100,75,50,30.14,30.06,29.98,10,7,1,20,8,25,0.01,7,Snow,262
2013-2-4,38,29,20,24,20,16,84,72,59,30.01,29.91,29.82,10,10,7,17,8,23,0.00,5,,353
2013-2-5,41,30,19,29,25,15,92,76,60,30.12,29.96,29.85,10,8,5,17,8,27,0.00,6,,275
2013-2-6,45,34,22,30,27,21,96,77,58,30.23,30.16,30.07,10,9,4,16,7,20,0.00,1,,165
2013-2-7,37,36,34,36,34,30,100,88,76,30.07,29.95,29.85,10,4,1,17,7,23,0.55,8,Rain,199
2013-2-8,34,30,25,30,22,20,89,82,75,30.41,30.32,30.06,10,10,10,17,7,26,T,8,,9
2013-2-9,37,32,27,29,25,21,82,76,69,30.40,30.26,30.05,10,10,8,21,11,26,0.00,5,,161
2013-2-10,49,43,36,46,38,30,93,73,53,30.05,29.73,29.52,10,6,1,31,17,40,0.72,8,Rain-Thunderstorm,168
2013-2-11,43,36,28,28,23,21,75,63,50,30.14,29.93,29.65,10,10,10,31,17,49,T,6,,281
2013-2-12,39,31,23,24,22,20,88,71,54,30.17,30.08,29.96,10,10,7,13,5,15,0.00,3,,266
2013-2-13,47,36,24,30,27,21,92,69,45,29.94,29.83,29.78,10,8,4,16,6,20,0.00,1,,220
2013-2-14,41,37,33,30,29,27,82,73,64,30.04,29.89,29.73,10,10,10,23,11,35,T,6,,269
2013-2-15,35,28,21,29,16,10,82,60,38,30.27,30.20,30.03,10,10,9,16,9,22,0.00,3,,317
2013-2-16,29,21,13,12,9,5,76,61,46,30.27,30.22,30.18,10,10,10,17,8,26,0.00,1,,329
2013-2-17,38,26,13,21,14,5,76,60,44,30.25,30.14,29.93,10,10,9,18,9,25,0.00,0,,146
2013-2-18,54,39,24,45,32,17,85,71,56,29.91,29.66,29.46,10,8,2,32,18,43,0.43,6,Rain-Snow,220
2013-2-19,24,19,13,15,8,5,74,65,56,30.30,30.07,29.82,10,10,7,30,18,47,T,6,Snow,292
2013-2-20,24,15,5,12,6,-2,80,65,50,30.45,30.38,30.27,10,10,10,15,7,21,0.00,0,,349
2013-2-21,29,22,14,25,20,10,92,80,68,30.39,30.07,29.87,10,5,0,25,12,32,0.28,7,Fog-Rain-Snow,88
2013-2-22,34,30,26,31,25,19,100,85,69,30.01,29.88,29.78,10,6,1,24,11,33,0.11,8,Snow,197
2013-2-23,30,25,20,19,17,14,81,70,58,30.04,30.01,29.97,10,10,7,12,7,15,T,5,,262
2013-2-24,37,25,12,25,19,9,92,73,54,30.16,30.12,30.05,10,8,5,9,3,11,0.00,0,,158
2013-2-25,45,34,23,32,27,21,88,73,57,30.14,30.05,29.85,10,8,5,22,10,28,0.00,0,,75
2013-2-26,36,34,32,31,30,26,92,81,70,29.83,29.55,29.47,10,3,0,32,16,41,0.58,8,Fog-Rain-Snow,43
2013-2-27,32,31,30,30,29,28,92,89,85,29.82,29.70,29.57,10,3,1,14,8,20,0.14,8,Snow,308
2013-2-28,36,34,32,30,29,28,92,84,75,30.10,29.99,29.81,10,8,2,13,7,18,0.02,8,Snow,337